createdAt,value
2023-04-29T00:00:38.911Z,11.30
2023-04-29T00:01:38.900Z,11.30
2023-04-29T00:02:39.021Z,11.27
2023-04-29T00:03:39.110Z,11.30
2023-04-29T00:04:39.245Z,11.33
2023-04-29T00:05:38.972Z,11.31
2023-04-29T00:06:38.833Z,11.28
2023-04-29T00:07:38.818Z,11.21
2023-04-29T00:08:38.813Z,11.27
2023-04-29T00:09:38.865Z,11.19
2023-04-29T00:10:38.779Z,11.24
2023-04-29T00:11:38.763Z,11.21
2023-04-29T00:12:38.757Z,11.12
2023-04-29T00:13:39.141Z,11.17
2023-04-29T00:14:38.761Z,11.16
2023-04-29T00:15:38.723Z,11.12
2023-04-29T00:16:38.792Z,11.08
2023-04-29T00:17:38.692Z,11.11
2023-04-29T00:18:38.689Z,11.19
2023-04-29T00:19:38.658Z,11.08
2023-04-29T00:20:38.666Z,11.06
2023-04-29T00:21:38.625Z,11.02
2023-04-29T00:22:38.612Z,11.05
2023-04-29T00:23:38.613Z,11.06
2023-04-29T00:24:38.590Z,11.03
2023-04-29T00:25:38.575Z,11.02
2023-04-29T00:26:38.564Z,11.13
2023-04-29T00:27:38.547Z,11.08
2023-04-29T00:28:38.531Z,11.05
2023-04-29T00:29:38.539Z,11.01
2023-04-29T00:30:38.612Z,11.11
2023-04-29T00:31:38.551Z,11.11
2023-04-29T00:32:38.516Z,11.17
2023-04-29T00:33:38.491Z,11.01
2023-04-29T00:34:38.461Z,11.02
2023-04-29T00:35:38.453Z,11.05
2023-04-29T00:36:38.452Z,11.08
2023-04-29T00:37:38.421Z,11.05
2023-04-29T00:38:38.401Z,10.99
2023-04-29T00:39:38.388Z,11.05
2023-04-29T00:40:38.374Z,11.03
2023-04-29T00:41:38.357Z,10.91
2023-04-29T00:42:38.361Z,10.98
2023-04-29T00:43:38.352Z,11.03
2023-04-29T00:44:38.317Z,10.94
2023-04-29T00:45:38.320Z,10.93
2023-04-29T00:46:38.409Z,10.93
2023-04-29T00:47:38.300Z,10.99
2023-04-29T00:48:38.273Z,10.88
2023-04-29T00:49:38.270Z,11.06
2023-04-29T00:50:38.245Z,10.88
2023-04-29T00:51:38.229Z,10.84
2023-04-29T00:52:38.246Z,10.90
2023-04-29T00:53:38.202Z,10.91
2023-04-29T00:54:38.194Z,10.93
2023-04-29T00:55:38.170Z,10.93
2023-04-29T00:56:38.158Z,10.93
2023-04-29T00:57:38.145Z,10.90
2023-04-29T00:58:38.133Z,10.90
2023-04-29T00:59:38.120Z,10.75
2023-04-29T01:00:38.113Z,10.83
2023-04-29T01:01:38.139Z,10.84
2023-04-29T01:02:38.172Z,10.83
2023-04-29T01:03:38.230Z,10.80
2023-04-29T01:04:38.090Z,10.88
2023-04-29T01:05:38.042Z,10.80
2023-04-29T01:06:38.036Z,10.76
2023-04-29T01:07:38.019Z,10.69
2023-04-29T01:08:38.025Z,10.78
2023-04-29T01:09:37.987Z,10.75
2023-04-29T01:10:38.029Z,10.75
2023-04-29T01:11:37.958Z,10.66
2023-04-29T01:12:37.951Z,10.84
2023-04-29T01:13:37.933Z,10.73
2023-04-29T01:14:37.934Z,10.83
2023-04-29T01:15:37.944Z,10.75
2023-04-29T01:16:38.013Z,10.73
2023-04-29T01:17:37.988Z,10.73
2023-04-29T01:18:37.888Z,10.75
2023-04-29T01:19:37.853Z,10.72
2023-04-29T01:20:37.861Z,10.73
2023-04-29T01:21:37.821Z,10.72
2023-04-29T01:22:37.806Z,10.84
2023-04-29T01:23:37.795Z,10.76
2023-04-29T01:24:37.814Z,10.70
2023-04-29T01:25:37.780Z,10.57
2023-04-29T01:26:37.759Z,10.54
2023-04-29T01:27:37.741Z,10.58
2023-04-29T01:28:37.733Z,10.66
2023-04-29T01:29:37.735Z,10.72
2023-04-29T01:30:37.705Z,10.65
2023-04-29T01:31:37.698Z,10.83
2023-04-29T01:32:37.757Z,10.72
2023-04-29T01:33:37.659Z,10.66
2023-04-29T01:34:37.653Z,10.62
2023-04-29T01:35:37.638Z,10.62
2023-04-29T01:36:37.626Z,10.72
2023-04-29T01:37:37.630Z,10.80
2023-04-29T01:38:37.612Z,10.68
2023-04-29T01:39:37.595Z,10.73
2023-04-29T01:40:37.600Z,10.60
2023-04-29T01:41:37.566Z,10.70
2023-04-29T01:42:37.568Z,10.66
2023-04-29T01:43:37.535Z,10.69
2023-04-29T01:44:37.521Z,10.70
2023-04-29T01:45:37.502Z,10.63
2023-04-29T01:46:37.546Z,10.69
2023-04-29T01:47:37.494Z,10.60
2023-04-29T01:48:37.470Z,10.68
2023-04-29T01:49:37.476Z,10.76
2023-04-29T01:50:37.447Z,10.69
2023-04-29T01:51:37.428Z,10.57
2023-04-29T01:52:37.414Z,10.66
2023-04-29T01:53:37.412Z,10.68
2023-04-29T01:54:37.393Z,10.58
2023-04-29T01:55:37.375Z,10.68
2023-04-29T01:56:37.390Z,10.52
2023-04-29T01:57:37.349Z,10.49
2023-04-29T01:58:37.346Z,10.55
2023-04-29T01:59:37.331Z,10.43
2023-04-29T02:00:37.315Z,10.52
2023-04-29T02:01:37.286Z,10.39
2023-04-29T02:02:37.411Z,10.47
2023-04-29T02:03:37.441Z,10.44
2023-04-29T02:04:37.340Z,10.44
2023-04-29T02:05:37.254Z,10.35
2023-04-29T02:06:37.220Z,10.42
2023-04-29T02:07:37.208Z,10.49
2023-04-29T02:08:37.200Z,10.43
2023-04-29T02:09:37.194Z,10.32
2023-04-29T02:10:37.181Z,10.20
2023-04-29T02:11:37.163Z,10.36
2023-04-29T02:12:37.172Z,10.46
2023-04-29T02:13:37.130Z,10.36
2023-04-29T02:14:38.000Z,10.39
2023-04-29T02:15:37.106Z,10.42
2023-04-29T02:16:37.133Z,10.42
2023-04-29T02:17:37.118Z,10.38
2023-04-29T02:18:37.066Z,10.49
2023-04-29T02:19:37.051Z,10.51
2023-04-29T02:20:37.029Z,10.43
2023-04-29T02:21:37.023Z,10.29
2023-04-29T02:22:37.030Z,10.38
2023-04-29T02:23:37.003Z,10.39
2023-04-29T02:24:36.984Z,10.42
2023-04-29T02:25:36.966Z,10.43
2023-04-29T02:26:36.963Z,10.36
2023-04-29T02:27:36.943Z,10.38
2023-04-29T02:28:36.962Z,10.39
2023-04-29T02:29:36.916Z,10.31
2023-04-29T02:30:36.904Z,10.43
2023-04-29T02:31:36.920Z,10.47
2023-04-29T02:32:36.896Z,10.44
2023-04-29T02:33:36.870Z,10.49
2023-04-29T02:34:36.861Z,10.34
2023-04-29T02:35:36.842Z,10.43
2023-04-29T02:36:36.834Z,10.42
2023-04-29T02:37:36.812Z,10.49
2023-04-29T02:38:36.802Z,10.35
2023-04-29T02:39:36.781Z,10.42
2023-04-29T02:40:36.771Z,10.55
2023-04-29T02:41:36.754Z,10.39
2023-04-29T02:42:36.748Z,10.47
2023-04-29T02:43:36.732Z,10.42
2023-04-29T02:44:36.765Z,10.46
2023-04-29T02:45:36.720Z,10.44
2023-04-29T02:46:36.694Z,10.44
2023-04-29T02:47:36.755Z,10.39
2023-04-29T02:48:36.668Z,10.42
2023-04-29T02:49:36.660Z,10.39
2023-04-29T02:50:36.633Z,10.35
2023-04-29T02:51:36.625Z,10.39
2023-04-29T02:52:36.614Z,10.46
2023-04-29T02:53:36.601Z,10.43
2023-04-29T02:54:36.585Z,10.47
2023-04-29T02:55:36.594Z,10.52
2023-04-29T02:56:36.609Z,10.46
2023-04-29T02:57:36.548Z,10.62
2023-04-29T02:58:36.729Z,10.54
2023-04-29T02:59:36.518Z,10.60
2023-04-29T03:00:36.635Z,10.47
2023-04-29T03:01:36.530Z,10.46
2023-04-29T03:02:36.672Z,10.51
2023-04-29T03:03:36.588Z,10.42
2023-04-29T03:04:36.659Z,10.51
2023-04-29T03:05:36.442Z,10.55
2023-04-29T03:06:36.424Z,10.43
2023-04-29T03:07:36.415Z,10.52
2023-04-29T03:08:36.648Z,10.51
2023-04-29T03:09:36.390Z,10.42
2023-04-29T03:10:36.415Z,10.49
2023-04-29T03:11:36.364Z,10.51
2023-04-29T03:12:36.350Z,10.58
2023-04-29T03:13:36.580Z,10.54
2023-04-29T03:14:36.330Z,10.51
2023-04-29T03:15:36.608Z,10.49
2023-04-29T03:16:36.356Z,10.47
2023-04-29T03:17:36.937Z,10.52
2023-04-29T03:18:36.269Z,10.44
2023-04-29T03:19:36.251Z,10.43
2023-04-29T03:20:36.240Z,10.60
2023-04-29T03:21:36.230Z,10.31
2023-04-29T03:22:36.221Z,10.39
2023-04-29T03:23:36.197Z,10.49
2023-04-29T03:24:36.193Z,10.36
2023-04-29T03:25:36.162Z,10.38
2023-04-29T03:26:36.159Z,10.43
2023-04-29T03:27:36.146Z,10.39
2023-04-29T03:28:36.137Z,10.38
2023-04-29T03:29:36.141Z,10.54
2023-04-29T03:30:36.106Z,10.42
2023-04-29T03:31:36.124Z,10.36
2023-04-29T03:32:36.115Z,10.43
2023-04-29T03:33:36.062Z,10.42
2023-04-29T03:34:36.072Z,10.32
2023-04-29T03:35:36.031Z,10.34
2023-04-29T03:36:36.023Z,10.46
2023-04-29T03:37:36.053Z,10.42
2023-04-29T03:38:35.984Z,10.29
2023-04-29T03:39:35.995Z,10.28
2023-04-29T03:40:35.963Z,10.47
2023-04-29T03:41:35.971Z,10.34
2023-04-29T03:42:35.937Z,10.35
2023-04-29T03:43:35.920Z,10.31
2023-04-29T03:44:35.910Z,10.22
2023-04-29T03:45:35.896Z,10.31
2023-04-29T03:46:35.980Z,10.22
2023-04-29T03:47:35.925Z,10.43
2023-04-29T03:48:35.885Z,10.24
2023-04-29T03:49:35.846Z,10.17
2023-04-29T03:50:35.827Z,10.32
2023-04-29T03:51:35.817Z,10.14
2023-04-29T03:52:35.804Z,10.22
2023-04-29T03:53:35.800Z,10.28
2023-04-29T03:54:35.778Z,10.24
2023-04-29T03:55:35.766Z,10.09
2023-04-29T03:56:35.748Z,10.13
2023-04-29T03:57:35.735Z,10.16
2023-04-29T03:58:35.722Z,10.13
2023-04-29T03:59:35.712Z,10.06
2023-04-29T04:00:35.904Z,10.07
2023-04-29T04:01:35.707Z,10.02
2023-04-29T04:02:35.764Z,10.07
2023-04-29T04:03:35.875Z,10.02
2023-04-29T04:04:35.857Z,10.17
2023-04-29T04:05:35.623Z,10.17
2023-04-29T04:06:35.611Z,10.11
2023-04-29T04:07:35.606Z,10.07
2023-04-29T04:08:35.586Z,10.14
2023-04-29T04:09:35.672Z,10.11
2023-04-29T04:10:35.576Z,10.04
2023-04-29T04:11:35.548Z,9.95
2023-04-29T04:12:35.536Z,10.07
2023-04-29T04:13:35.519Z,10.02
2023-04-29T04:14:35.507Z,9.99
2023-04-29T04:15:35.492Z,9.88
2023-04-29T04:16:35.527Z,10.02
2023-04-29T04:17:35.483Z,9.98
2023-04-29T04:18:35.473Z,9.95
2023-04-29T04:19:35.437Z,10.01
2023-04-29T04:20:35.461Z,10.01
2023-04-29T04:21:35.422Z,9.98
2023-04-29T04:22:35.399Z,9.96
2023-04-29T04:23:35.391Z,9.96
2023-04-29T04:24:35.580Z,9.92
2023-04-29T04:25:35.361Z,10.01
2023-04-29T04:26:35.389Z,10.02
2023-04-29T04:27:35.329Z,10.09
2023-04-29T04:28:35.352Z,10.06
2023-04-29T04:29:35.307Z,10.11
2023-04-29T04:30:35.286Z,9.99
2023-04-29T04:31:35.302Z,10.10
2023-04-29T04:32:35.295Z,10.20
2023-04-29T04:33:35.258Z,10.14
2023-04-29T04:34:35.249Z,10.22
2023-04-29T04:35:35.230Z,10.26
2023-04-29T04:36:35.239Z,10.20
2023-04-29T04:37:35.201Z,10.22
2023-04-29T04:38:35.195Z,10.29
2023-04-29T04:39:35.166Z,10.25
2023-04-29T04:40:35.159Z,10.28
2023-04-29T04:41:35.148Z,10.35
2023-04-29T04:42:35.136Z,10.32
2023-04-29T04:43:35.121Z,10.31
2023-04-29T04:44:35.107Z,10.31
2023-04-29T04:45:35.198Z,10.29
2023-04-29T04:46:35.349Z,10.38
2023-04-29T04:47:35.190Z,10.20
2023-04-29T04:48:35.058Z,10.34
2023-04-29T04:49:35.060Z,10.46
2023-04-29T04:50:35.030Z,10.22
2023-04-29T04:51:35.017Z,10.38
2023-04-29T04:52:35.023Z,10.43
2023-04-29T04:53:34.990Z,10.43
2023-04-29T04:54:34.978Z,10.35
2023-04-29T04:55:34.958Z,10.39
2023-04-29T04:56:34.952Z,10.26
2023-04-29T04:57:34.936Z,10.47
2023-04-29T04:58:34.922Z,10.38
2023-04-29T04:59:34.905Z,10.42
2023-04-29T05:00:34.892Z,10.46
2023-04-29T05:01:35.003Z,10.46
2023-04-29T05:02:35.054Z,10.60
2023-04-29T05:03:34.936Z,10.44
2023-04-29T05:04:34.841Z,10.62
2023-04-29T05:05:34.823Z,10.69
2023-04-29T05:06:34.833Z,10.73
2023-04-29T05:07:34.798Z,10.75
2023-04-29T05:08:34.810Z,10.72
2023-04-29T05:09:34.772Z,10.84
2023-04-29T05:10:34.766Z,10.75
2023-04-29T05:11:34.744Z,10.70
2023-04-29T05:12:34.732Z,10.80
2023-04-29T05:13:34.723Z,10.88
2023-04-29T05:14:34.715Z,10.86
2023-04-29T05:15:34.687Z,10.87
2023-04-29T05:16:34.762Z,10.93
2023-04-29T05:17:34.678Z,11.03
2023-04-29T05:18:34.652Z,11.09
2023-04-29T05:19:34.639Z,11.03
2023-04-29T05:20:34.931Z,11.06
2023-04-29T05:21:34.613Z,11.11
2023-04-29T05:22:34.608Z,11.11
2023-04-29T05:23:34.586Z,11.20
2023-04-29T05:24:34.623Z,11.16
2023-04-29T05:25:34.560Z,11.26
2023-04-29T05:26:34.555Z,11.23
2023-04-29T05:27:34.529Z,11.35
2023-04-29T05:28:34.519Z,11.35
2023-04-29T05:29:34.513Z,11.33
2023-04-29T05:30:34.549Z,11.26
2023-04-29T05:31:34.481Z,11.33
2023-04-29T05:32:34.494Z,11.38
2023-04-29T05:33:34.455Z,11.26
2023-04-29T05:34:34.444Z,11.35
2023-04-29T05:35:34.433Z,11.28
2023-04-29T05:36:34.416Z,11.30
2023-04-29T05:37:34.395Z,11.31
2023-04-29T05:38:34.390Z,11.28
2023-04-29T05:39:34.372Z,11.30
2023-04-29T05:40:34.381Z,11.35
2023-04-29T05:41:34.340Z,11.39
2023-04-29T05:42:34.338Z,11.35
2023-04-29T05:43:34.345Z,11.41
2023-04-29T05:44:34.320Z,11.28
2023-04-29T05:45:34.289Z,11.26
2023-04-29T05:46:34.344Z,11.23
2023-04-29T05:47:34.294Z,11.17
2023-04-29T05:48:34.251Z,11.17
2023-04-29T05:49:34.241Z,11.17
2023-04-29T05:50:34.230Z,11.09
2023-04-29T05:51:34.213Z,11.24
2023-04-29T05:52:34.202Z,11.33
2023-04-29T05:53:34.189Z,11.31
2023-04-29T05:54:34.174Z,11.35
2023-04-29T05:55:34.167Z,11.36
2023-04-29T05:56:34.328Z,11.33
2023-04-29T05:57:34.146Z,11.41
2023-04-29T05:58:34.125Z,11.42
2023-04-29T05:59:34.107Z,11.42
2023-04-29T06:00:34.125Z,11.45
2023-04-29T06:01:34.099Z,11.70
2023-04-29T06:02:37.486Z,11.54
2023-04-29T06:03:34.262Z,11.53
2023-04-29T06:04:34.595Z,11.64
2023-04-29T06:05:34.569Z,11.77
2023-04-29T06:06:34.220Z,11.75
2023-04-29T06:07:34.099Z,11.87
2023-04-29T06:08:33.993Z,11.88
2023-04-29T06:09:33.973Z,11.93
2023-04-29T06:10:34.064Z,11.75
2023-04-29T06:11:33.943Z,11.87
2023-04-29T06:12:33.952Z,11.85
2023-04-29T06:13:33.925Z,12.00
2023-04-29T06:14:33.959Z,12.23
2023-04-29T06:15:33.891Z,12.38
2023-04-29T06:16:34.293Z,12.52
2023-04-29T06:17:33.889Z,12.67
2023-04-29T06:18:33.855Z,12.69
2023-04-29T06:19:33.841Z,12.81
2023-04-29T06:20:34.961Z,12.91
2023-04-29T06:21:34.066Z,12.88
2023-04-29T06:22:33.806Z,12.94
2023-04-29T06:23:34.252Z,13.03
2023-04-29T06:24:33.776Z,13.19
2023-04-29T06:25:33.900Z,13.14
2023-04-29T06:26:33.751Z,13.29
2023-04-29T06:27:33.727Z,13.43
2023-04-29T06:28:33.738Z,13.59
2023-04-29T06:29:33.711Z,13.62
2023-04-29T06:30:33.696Z,13.65
2023-04-29T06:31:33.686Z,13.79
2023-04-29T06:32:33.672Z,13.88
2023-04-29T06:33:33.653Z,13.94
2023-04-29T06:34:33.639Z,14.12
2023-04-29T06:35:33.623Z,14.24
2023-04-29T06:36:33.612Z,14.31
2023-04-29T06:37:35.339Z,14.56
2023-04-29T06:38:33.582Z,14.85
2023-04-29T06:39:33.575Z,14.67
2023-04-29T06:40:33.557Z,14.69
2023-04-29T06:41:33.559Z,14.61
2023-04-29T06:42:33.527Z,14.66
2023-04-29T06:43:33.518Z,14.69
2023-04-29T06:44:33.528Z,14.67
2023-04-29T06:45:33.507Z,14.66
2023-04-29T06:46:33.517Z,14.83
2023-04-29T06:47:33.501Z,14.69
2023-04-29T06:48:33.456Z,14.63
2023-04-29T06:49:33.517Z,14.83
2023-04-29T06:50:33.427Z,15.16
2023-04-29T06:51:33.407Z,15.22
2023-04-29T06:52:33.414Z,15.05
2023-04-29T06:53:33.387Z,15.13
2023-04-29T06:54:33.376Z,15.31
2023-04-29T06:55:33.360Z,15.41
2023-04-29T06:56:33.376Z,15.64
2023-04-29T06:57:33.341Z,15.85
2023-04-29T06:58:33.319Z,16.06
2023-04-29T06:59:33.315Z,16.33
2023-04-29T07:00:33.323Z,16.51
2023-04-29T07:01:33.330Z,16.25
2023-04-29T07:02:33.324Z,16.08
2023-04-29T07:03:33.363Z,15.98
2023-04-29T07:04:33.278Z,15.85
2023-04-29T07:05:33.228Z,15.89
2023-04-29T07:06:33.214Z,16.01
2023-04-29T07:07:33.210Z,16.14
2023-04-29T07:08:33.190Z,16.37
2023-04-29T07:09:33.176Z,16.44
2023-04-29T07:10:33.166Z,16.55
2023-04-29T07:11:33.149Z,16.47
2023-04-29T07:12:33.138Z,16.37
2023-04-29T07:13:33.126Z,16.18
2023-04-29T07:14:33.108Z,16.17
2023-04-29T07:15:33.095Z,15.89
2023-04-29T07:16:33.139Z,15.96
2023-04-29T07:17:33.082Z,16.01
2023-04-29T07:18:33.067Z,15.76
2023-04-29T07:19:33.043Z,15.58
2023-04-29T07:20:33.043Z,15.96
2023-04-29T07:21:33.024Z,16.23
2023-04-29T07:22:33.014Z,16.07
2023-04-29T07:23:33.000Z,15.96
2023-04-29T07:24:32.987Z,15.88
2023-04-29T07:25:33.002Z,15.66
2023-04-29T07:26:32.959Z,15.67
2023-04-29T07:27:32.947Z,15.67
2023-04-29T07:28:32.931Z,15.60
2023-04-29T07:29:32.922Z,15.49
2023-04-29T07:30:32.965Z,15.35
2023-04-29T07:31:33.029Z,15.28
2023-04-29T07:32:32.921Z,15.03
2023-04-29T07:33:32.871Z,14.98
2023-04-29T07:34:32.852Z,14.97
2023-04-29T07:35:32.834Z,14.97
2023-04-29T07:36:32.823Z,14.95
2023-04-29T07:37:32.827Z,14.93
2023-04-29T07:38:32.804Z,15.09
2023-04-29T07:39:32.789Z,15.28
2023-04-29T07:40:32.812Z,15.41
2023-04-29T07:41:32.751Z,15.34
2023-04-29T07:42:32.743Z,15.33
2023-04-29T07:43:32.740Z,15.31
2023-04-29T07:44:32.721Z,15.28
2023-04-29T07:45:32.702Z,15.19
2023-04-29T07:46:32.717Z,15.20
2023-04-29T07:47:32.706Z,15.19
2023-04-29T07:48:32.687Z,15.03
2023-04-29T07:49:32.645Z,15.03
2023-04-29T07:50:32.636Z,15.05
2023-04-29T07:51:32.624Z,15.25
2023-04-29T07:52:32.612Z,15.19
2023-04-29T07:53:32.605Z,15.07
2023-04-29T07:54:32.584Z,15.12
2023-04-29T07:55:32.558Z,15.49
2023-04-29T07:56:32.555Z,15.58
2023-04-29T07:57:32.548Z,15.56
2023-04-29T07:58:32.527Z,15.43
2023-04-29T07:59:32.527Z,15.35
2023-04-29T08:00:32.706Z,15.22
2023-04-29T08:01:32.494Z,15.22
2023-04-29T08:02:32.601Z,15.19
2023-04-29T08:03:32.567Z,15.09
2023-04-29T08:04:32.725Z,15.16
2023-04-29T08:05:33.020Z,15.09
2023-04-29T08:06:32.417Z,15.23
2023-04-29T08:07:32.404Z,15.23
2023-04-29T08:08:32.397Z,15.09
2023-04-29T08:09:32.386Z,15.12
2023-04-29T08:10:32.375Z,15.09
2023-04-29T08:11:32.354Z,15.12
2023-04-29T08:12:32.339Z,15.05
2023-04-29T08:13:32.332Z,15.18
2023-04-29T08:14:32.315Z,15.30
2023-04-29T08:15:32.312Z,15.67
2023-04-29T08:16:32.323Z,15.92
2023-04-29T08:17:32.309Z,15.96
2023-04-29T08:18:32.433Z,16.36
2023-04-29T08:19:32.248Z,16.82
2023-04-29T08:20:32.375Z,16.84
2023-04-29T08:21:32.217Z,17.35
2023-04-29T08:22:32.222Z,17.98
2023-04-29T08:23:32.207Z,18.13
2023-04-29T08:24:32.188Z,17.84
2023-04-29T08:25:32.165Z,17.40
2023-04-29T08:26:32.604Z,17.14
2023-04-29T08:27:32.150Z,16.81
2023-04-29T08:28:32.129Z,16.69
2023-04-29T08:29:32.117Z,17.27
2023-04-29T08:30:32.114Z,17.73
2023-04-29T08:31:32.120Z,18.29
2023-04-29T08:32:32.212Z,18.74
2023-04-29T08:33:32.058Z,19.30
2023-04-29T08:34:32.054Z,19.85
2023-04-29T08:35:32.043Z,19.75
2023-04-29T08:36:32.064Z,19.68
2023-04-29T08:37:32.107Z,19.80
2023-04-29T08:38:32.007Z,19.95
2023-04-29T08:39:32.042Z,19.87
2023-04-29T08:40:31.968Z,19.32
2023-04-29T08:41:31.961Z,18.57
2023-04-29T08:42:32.046Z,18.62
2023-04-29T08:43:31.928Z,18.66
2023-04-29T08:44:31.920Z,19.21
2023-04-29T08:45:31.933Z,19.21
2023-04-29T08:46:31.944Z,19.35
2023-04-29T08:47:32.071Z,19.28
2023-04-29T08:48:31.936Z,19.28
2023-04-29T08:49:31.857Z,19.25
2023-04-29T08:50:32.047Z,18.96
2023-04-29T08:51:32.041Z,18.66
2023-04-29T08:52:31.833Z,18.74
2023-04-29T08:53:32.052Z,18.74
2023-04-29T08:54:31.839Z,18.44
2023-04-29T08:55:31.929Z,18.02
2023-04-29T08:56:31.761Z,17.96
2023-04-29T08:57:31.817Z,18.26
2023-04-29T08:58:31.731Z,18.38
2023-04-29T08:59:31.774Z,18.17
2023-04-29T09:00:32.055Z,18.32
2023-04-29T09:01:31.711Z,18.14
2023-04-29T09:02:31.834Z,17.91
2023-04-29T09:03:31.998Z,17.96
2023-04-29T09:04:31.689Z,18.42
2023-04-29T09:05:31.647Z,18.71
2023-04-29T09:06:31.629Z,18.60
2023-04-29T09:07:31.618Z,18.54
2023-04-29T09:08:31.624Z,18.53
2023-04-29T09:09:31.588Z,18.11
2023-04-29T09:10:31.586Z,17.77
2023-04-29T09:11:31.582Z,17.51
2023-04-29T09:12:31.551Z,17.46
2023-04-29T09:13:31.540Z,17.58
2023-04-29T09:14:31.523Z,18.04
2023-04-29T09:15:31.517Z,18.02
2023-04-29T09:16:31.540Z,17.80
2023-04-29T09:17:31.551Z,18.21
2023-04-29T09:18:31.475Z,18.53
2023-04-29T09:19:31.466Z,18.83
2023-04-29T09:20:31.460Z,18.76
2023-04-29T09:21:31.435Z,19.02
2023-04-29T09:22:31.426Z,19.01
2023-04-29T09:23:31.416Z,18.76
2023-04-29T09:24:31.438Z,18.46
2023-04-29T09:25:31.384Z,18.41
2023-04-29T09:26:31.373Z,18.21
2023-04-29T09:27:31.365Z,18.10
2023-04-29T09:28:31.350Z,18.14
2023-04-29T09:29:31.336Z,17.79
2023-04-29T09:30:31.320Z,17.54
2023-04-29T09:31:31.315Z,17.65
2023-04-29T09:32:31.334Z,17.70
2023-04-29T09:33:31.362Z,17.49
2023-04-29T09:34:31.270Z,17.55
2023-04-29T09:35:31.257Z,17.99
2023-04-29T09:36:31.246Z,18.59
2023-04-29T09:37:31.235Z,19.28
2023-04-29T09:38:31.221Z,19.67
2023-04-29T09:39:31.210Z,19.68
2023-04-29T09:40:31.215Z,19.60
2023-04-29T09:41:31.179Z,19.57
2023-04-29T09:42:31.168Z,19.60
2023-04-29T09:43:31.162Z,19.55
2023-04-29T09:44:33.902Z,19.65
2023-04-29T09:45:31.135Z,20.05
2023-04-29T09:46:31.191Z,20.48
2023-04-29T09:47:31.138Z,20.90
2023-04-29T09:48:31.088Z,21.38
2023-04-29T09:49:31.075Z,21.73
2023-04-29T09:50:31.064Z,22.15
2023-04-29T09:51:31.056Z,22.33
2023-04-29T09:52:31.040Z,22.57
2023-04-29T09:53:31.029Z,22.86
2023-04-29T09:54:31.019Z,23.07
2023-04-29T09:55:31.011Z,23.31
2023-04-29T09:56:31.040Z,23.39
2023-04-29T09:57:30.990Z,23.21
2023-04-29T09:58:30.982Z,22.23
2023-04-29T09:59:30.948Z,21.67
2023-04-29T10:00:30.935Z,21.26
2023-04-29T10:01:30.971Z,21.15
2023-04-29T10:02:30.972Z,20.87
2023-04-29T10:03:30.948Z,20.53
2023-04-29T10:04:30.926Z,20.38
2023-04-29T10:05:30.877Z,20.19
2023-04-29T10:06:30.859Z,20.01
2023-04-29T10:07:30.847Z,19.71
2023-04-29T10:08:30.831Z,19.40
2023-04-29T10:09:30.825Z,19.02
2023-04-29T10:10:30.810Z,18.74
2023-04-29T10:11:30.793Z,18.49
2023-04-29T10:12:30.801Z,18.36
2023-04-29T10:13:30.766Z,18.29
2023-04-29T10:14:30.752Z,18.26
2023-04-29T10:15:30.745Z,18.25
2023-04-29T10:16:30.845Z,18.23
2023-04-29T10:17:30.715Z,18.26
2023-04-29T10:18:30.719Z,18.16
2023-04-29T10:19:30.687Z,18.02
2023-04-29T10:20:30.682Z,17.99
2023-04-29T10:21:30.664Z,17.94
2023-04-29T10:22:30.654Z,17.96
2023-04-29T10:23:30.642Z,18.14
2023-04-29T10:24:30.624Z,18.01
2023-04-29T10:25:30.619Z,18.07
2023-04-29T10:26:30.594Z,18.16
2023-04-29T10:27:30.589Z,18.11
2023-04-29T10:28:30.600Z,18.29
2023-04-29T10:29:30.557Z,18.90
2023-04-29T10:30:30.560Z,19.60
2023-04-29T10:31:30.634Z,20.27
2023-04-29T10:32:37.006Z,20.41
2023-04-29T10:33:31.559Z,20.37
2023-04-29T10:34:30.496Z,20.20
2023-04-29T10:35:30.493Z,19.70
2023-04-29T10:36:30.527Z,19.20
2023-04-29T10:37:30.458Z,18.91
2023-04-29T10:38:30.517Z,18.62
2023-04-29T10:39:30.451Z,18.50
2023-04-29T10:40:30.435Z,18.47
2023-04-29T10:41:30.416Z,18.46
2023-04-29T10:42:30.412Z,18.39
2023-04-29T10:43:30.445Z,18.14
2023-04-29T10:44:30.510Z,18.17
2023-04-29T10:45:30.351Z,17.95
2023-04-29T10:46:30.365Z,17.84
2023-04-29T10:47:30.399Z,17.79
2023-04-29T10:48:30.325Z,17.71
2023-04-29T10:49:30.307Z,17.62
2023-04-29T10:50:30.289Z,17.45
2023-04-29T10:51:30.277Z,17.45
2023-04-29T10:52:30.264Z,17.45
2023-04-29T10:53:30.252Z,17.80
2023-04-29T10:54:30.235Z,18.44
2023-04-29T10:55:30.230Z,19.02
2023-04-29T10:56:30.207Z,19.47
2023-04-29T10:57:30.206Z,19.95
2023-04-29T10:58:30.181Z,20.53
2023-04-29T10:59:30.186Z,21.00
2023-04-29T11:00:30.174Z,20.76
2023-04-29T11:01:30.228Z,20.81
2023-04-29T11:02:30.189Z,20.88
2023-04-29T11:03:30.253Z,20.88
2023-04-29T11:04:30.131Z,21.08
2023-04-29T11:05:30.108Z,20.93
2023-04-29T11:06:30.088Z,20.61
2023-04-29T11:07:30.073Z,20.40
2023-04-29T11:08:30.055Z,20.12
2023-04-29T11:09:30.051Z,19.87
2023-04-29T11:10:30.040Z,19.72
2023-04-29T11:11:30.020Z,19.64
2023-04-29T11:12:30.008Z,19.31
2023-04-29T11:13:30.007Z,19.12
2023-04-29T11:14:29.976Z,19.07
2023-04-29T11:15:29.966Z,19.21
2023-04-29T11:16:30.054Z,19.42
2023-04-29T11:17:29.980Z,19.62
2023-04-29T11:18:29.934Z,19.79
2023-04-29T11:19:29.921Z,19.82
2023-04-29T11:20:29.899Z,19.87
2023-04-29T11:21:29.887Z,20.10
2023-04-29T11:22:29.875Z,19.86
2023-04-29T11:23:29.868Z,20.05
2023-04-29T11:24:29.854Z,20.16
2023-04-29T11:25:29.867Z,20.31
2023-04-29T11:26:29.825Z,20.37
2023-04-29T11:27:29.816Z,20.42
2023-04-29T11:28:29.820Z,20.46
2023-04-29T11:29:29.783Z,20.50
2023-04-29T11:30:29.771Z,20.54
2023-04-29T11:31:29.864Z,20.57
2023-04-29T11:32:30.001Z,20.72
2023-04-29T11:33:30.014Z,20.73
2023-04-29T11:34:29.727Z,20.57
2023-04-29T11:35:29.860Z,20.38
2023-04-29T11:36:29.692Z,20.16
2023-04-29T11:37:29.684Z,20.02
2023-04-29T11:38:29.669Z,19.79
2023-04-29T11:39:29.667Z,19.71
2023-04-29T11:40:29.658Z,19.49
2023-04-29T11:41:29.643Z,19.39
2023-04-29T11:42:29.623Z,19.20
2023-04-29T11:43:29.623Z,19.12
2023-04-29T11:44:29.597Z,18.89
2023-04-29T11:45:29.585Z,18.75
2023-04-29T11:46:29.647Z,19.05
2023-04-29T11:47:29.680Z,19.55
2023-04-29T11:48:29.586Z,20.02
2023-04-29T11:49:29.541Z,20.12
2023-04-29T11:50:29.530Z,20.10
2023-04-29T11:51:29.507Z,20.01
2023-04-29T11:52:29.548Z,20.12
2023-04-29T11:53:29.480Z,20.42
2023-04-29T11:54:29.496Z,20.37
2023-04-29T11:55:29.464Z,20.46
2023-04-29T11:56:29.444Z,20.23
2023-04-29T11:57:29.435Z,20.19
2023-04-29T11:58:29.412Z,20.23
2023-04-29T11:59:29.415Z,19.92
2023-04-29T12:00:29.386Z,19.65
2023-04-29T12:01:29.373Z,19.85
2023-04-29T12:02:29.501Z,20.23
2023-04-29T12:03:29.545Z,20.57
2023-04-29T12:04:29.567Z,20.44
2023-04-29T12:05:29.359Z,20.27
2023-04-29T12:06:29.310Z,20.34
2023-04-29T12:07:29.303Z,20.61
2023-04-29T12:08:29.277Z,20.66
2023-04-29T12:09:29.271Z,20.90
2023-04-29T12:10:29.259Z,21.00
2023-04-29T12:11:29.277Z,21.45
2023-04-29T12:12:29.313Z,21.48
2023-04-29T12:13:29.221Z,21.24
2023-04-29T12:14:29.212Z,20.90
2023-04-29T12:15:29.197Z,20.61
2023-04-29T12:16:29.391Z,20.40
2023-04-29T12:17:29.209Z,20.16
2023-04-29T12:18:29.152Z,19.95
2023-04-29T12:19:29.143Z,19.68
2023-04-29T12:20:29.153Z,19.49
2023-04-29T12:21:29.118Z,19.31
2023-04-29T12:22:29.114Z,19.67
2023-04-29T12:23:29.094Z,20.00
2023-04-29T12:24:29.080Z,20.44
2023-04-29T12:25:29.067Z,20.42
2023-04-29T12:26:29.053Z,20.08
2023-04-29T12:27:29.053Z,20.01
2023-04-29T12:28:29.027Z,19.95
2023-04-29T12:29:29.015Z,19.80
2023-04-29T12:30:29.001Z,19.67
2023-04-29T12:31:29.010Z,19.57
2023-04-29T12:32:29.004Z,19.64
2023-04-29T12:33:28.989Z,19.61
2023-04-29T12:34:28.955Z,19.71
2023-04-29T12:35:28.956Z,19.79
2023-04-29T12:36:29.003Z,19.89
2023-04-29T12:37:28.915Z,19.85
2023-04-29T12:38:29.102Z,19.87
2023-04-29T12:39:28.951Z,19.82
2023-04-29T12:40:30.254Z,20.04
2023-04-29T12:41:28.850Z,20.23
2023-04-29T12:42:28.843Z,20.48
2023-04-29T12:43:28.829Z,20.50
2023-04-29T12:44:29.054Z,20.58
2023-04-29T12:45:28.802Z,20.71
2023-04-29T12:46:28.842Z,20.82
2023-04-29T12:47:28.806Z,20.69
2023-04-29T12:48:31.580Z,20.53
2023-04-29T12:49:28.759Z,20.63
2023-04-29T12:50:28.739Z,20.69
2023-04-29T12:51:28.733Z,20.44
2023-04-29T12:52:28.730Z,20.48
2023-04-29T12:53:28.697Z,20.23